createdAt,value
2017-10-18T00:00:33.271Z,100407
2017-10-18T00:01:33.037Z,100409
2017-10-18T00:02:33.112Z,100412
2017-10-18T00:03:33.186Z,100407
2017-10-18T00:04:33.215Z,100407
2017-10-18T00:05:33.274Z,100408
2017-10-18T00:06:33.634Z,100404
2017-10-18T00:07:33.341Z,100406
2017-10-18T00:08:33.458Z,100407
2017-10-18T00:09:33.421Z,100413
2017-10-18T00:10:33.474Z,100415
2017-10-18T00:11:33.560Z,100418
2017-10-18T00:12:33.856Z,100414
2017-10-18T00:13:33.728Z,100417
2017-10-18T00:14:33.786Z,100418
2017-10-18T00:15:33.864Z,100417
2017-10-18T00:16:33.932Z,100422
2017-10-18T00:17:33.933Z,100420
2017-10-18T00:18:34.254Z,100422
2017-10-18T00:19:34.003Z,100419
2017-10-18T00:20:34.088Z,100421
2017-10-18T00:21:34.154Z,100418
2017-10-18T00:22:34.174Z,100420
2017-10-18T00:23:34.280Z,100415
2017-10-18T00:24:34.582Z,100414
2017-10-18T00:25:34.272Z,100408
2017-10-18T00:26:34.420Z,100412
2017-10-18T00:27:34.481Z,100414
2017-10-18T00:28:34.438Z,100412
2017-10-18T00:29:34.539Z,100411
2017-10-18T00:30:34.908Z,100408
2017-10-18T00:31:34.720Z,100407
2017-10-18T00:32:34.854Z,100406
2017-10-18T00:33:34.870Z,100413
2017-10-18T00:34:34.925Z,100407
2017-10-18T00:35:34.956Z,100408
2017-10-18T00:36:35.223Z,100407
2017-10-18T00:37:35.003Z,100398
2017-10-18T00:38:35.121Z,100404
2017-10-18T00:39:35.118Z,100406
2017-10-18T00:40:35.188Z,100404
2017-10-18T00:41:35.280Z,100405
2017-10-18T00:42:35.621Z,100401
2017-10-18T00:43:35.373Z,100402
2017-10-18T00:44:35.458Z,100405
2017-10-18T00:45:35.544Z,100404
2017-10-18T00:46:35.602Z,100402
2017-10-18T00:47:35.655Z,100398
2017-10-18T00:48:36.009Z,100395
2017-10-18T00:49:35.686Z,100402
2017-10-18T00:50:35.693Z,100398
2017-10-18T00:51:35.766Z,100401
2017-10-18T00:52:35.884Z,100398
2017-10-18T00:53:35.867Z,100399
2017-10-18T00:54:36.289Z,100401
2017-10-18T00:55:36.043Z,100397
2017-10-18T00:56:36.140Z,100393
2017-10-18T00:57:36.144Z,100391
2017-10-18T00:58:36.313Z,100395
2017-10-18T00:59:36.322Z,100394
2017-10-18T01:00:37.284Z,100388
2017-10-18T01:01:36.483Z,100396
2017-10-18T01:02:36.579Z,100392
2017-10-18T01:03:36.609Z,100396
2017-10-18T01:04:36.666Z,100394
2017-10-18T01:05:36.783Z,100390
2017-10-18T01:06:37.159Z,100391
2017-10-18T01:07:36.820Z,100392
2017-10-18T01:08:36.913Z,100385
2017-10-18T01:09:36.923Z,100390
2017-10-18T01:10:37.058Z,100386
2017-10-18T01:11:37.134Z,100386
2017-10-18T01:12:37.402Z,100384
2017-10-18T01:13:37.244Z,100390
2017-10-18T01:14:37.361Z,100385
2017-10-18T01:15:37.373Z,100385
2017-10-18T01:16:37.391Z,100383
2017-10-18T01:17:37.386Z,100379
2017-10-18T01:18:37.710Z,100382
2017-10-18T01:19:37.574Z,100385
2017-10-18T01:20:37.634Z,100381
2017-10-18T01:21:37.564Z,100382
2017-10-18T01:22:37.661Z,100382
2017-10-18T01:23:37.734Z,100378
2017-10-18T01:24:37.961Z,100375
2017-10-18T01:25:37.778Z,100380
2017-10-18T01:26:37.804Z,100377
2017-10-18T01:27:37.855Z,100381
2017-10-18T01:28:37.987Z,100382
2017-10-18T01:29:38.049Z,100380
2017-10-18T01:30:38.307Z,100379
2017-10-18T01:31:38.076Z,100374
2017-10-18T01:32:38.127Z,100378
2017-10-18T01:33:38.137Z,100371
2017-10-18T01:34:38.275Z,100373
2017-10-18T01:35:38.363Z,100374
2017-10-18T01:36:38.667Z,100374
2017-10-18T01:37:38.411Z,100374
2017-10-18T01:38:38.429Z,100374
2017-10-18T01:39:38.376Z,100368
2017-10-18T01:40:38.381Z,100363
2017-10-18T01:41:38.416Z,100364
2017-10-18T01:42:38.734Z,100369
2017-10-18T01:43:38.494Z,100367
2017-10-18T01:44:38.581Z,100367
2017-10-18T01:45:38.554Z,100362
2017-10-18T01:46:38.639Z,100368
2017-10-18T01:47:38.595Z,100360
2017-10-18T01:48:38.991Z,100364
2017-10-18T01:49:38.650Z,100362
2017-10-18T01:50:38.733Z,100357
2017-10-18T01:51:38.813Z,100360
2017-10-18T01:52:38.817Z,100358
2017-10-18T01:53:38.977Z,100355
2017-10-18T01:54:39.334Z,100349
2017-10-18T01:55:39.095Z,100351
2017-10-18T01:56:39.054Z,100350
2017-10-18T01:57:39.170Z,100353
2017-10-18T01:58:39.123Z,100347
2017-10-18T01:59:39.265Z,100354
2017-10-18T02:00:39.479Z,100355
2017-10-18T02:01:39.272Z,100355
2017-10-18T02:02:39.362Z,100352
2017-10-18T02:03:39.371Z,100355
2017-10-18T02:04:39.460Z,100351
2017-10-18T02:05:39.380Z,100350
2017-10-18T02:06:39.769Z,100355
2017-10-18T02:07:39.535Z,100357
2017-10-18T02:08:39.535Z,100357
2017-10-18T02:09:39.572Z,100355
2017-10-18T02:10:39.721Z,100357
2017-10-18T02:11:39.703Z,100353
2017-10-18T02:12:40.027Z,100351
2017-10-18T02:13:39.778Z,100352
2017-10-18T02:14:39.819Z,100350
2017-10-18T02:15:39.971Z,100348
2017-10-18T02:16:40.029Z,100346
2017-10-18T02:17:40.071Z,100351
2017-10-18T02:18:40.339Z,100349
2017-10-18T02:19:40.200Z,100347
2017-10-18T02:20:40.223Z,100348
2017-10-18T02:21:40.296Z,100344
2017-10-18T02:22:40.317Z,100343
2017-10-18T02:23:40.370Z,100337
2017-10-18T02:24:40.638Z,100347
2017-10-18T02:25:40.455Z,100346
2017-10-18T02:26:40.543Z,100342
2017-10-18T02:27:40.579Z,100339
2017-10-18T02:28:40.701Z,100342
2017-10-18T02:29:40.644Z,100342
2017-10-18T02:30:41.046Z,100337
2017-10-18T02:31:40.867Z,100340
2017-10-18T02:32:40.863Z,100337
2017-10-18T02:33:40.956Z,100341
2017-10-18T02:34:41.026Z,100337
2017-10-18T02:35:41.028Z,100337
2017-10-18T02:36:41.379Z,100334
2017-10-18T02:37:41.041Z,100333
2017-10-18T02:38:41.106Z,100342
2017-10-18T02:39:41.253Z,100337
2017-10-18T02:40:41.293Z,100336
2017-10-18T02:41:41.387Z,100344
2017-10-18T02:42:41.724Z,100337
2017-10-18T02:43:41.462Z,100339
2017-10-18T02:44:41.513Z,100339
2017-10-18T02:45:41.605Z,100340
2017-10-18T02:46:41.653Z,100336
2017-10-18T02:47:41.720Z,100334
2017-10-18T02:48:41.989Z,100330
2017-10-18T02:49:41.749Z,100331
2017-10-18T02:50:41.814Z,100326
2017-10-18T02:51:41.888Z,100324
2017-10-18T02:52:41.901Z,100323
2017-10-18T02:53:41.910Z,100326
2017-10-18T02:54:42.190Z,100325
2017-10-18T02:55:41.924Z,100325
2017-10-18T02:56:41.927Z,100325
2017-10-18T02:57:41.921Z,100326
2017-10-18T02:58:42.049Z,100323
2017-10-18T02:59:42.062Z,100324
2017-10-18T03:00:42.502Z,100325
2017-10-18T03:01:42.166Z,100324
2017-10-18T03:02:42.305Z,100325
2017-10-18T03:03:42.310Z,100321
2017-10-18T03:04:42.311Z,100322
2017-10-18T03:05:42.269Z,100321
2017-10-18T03:06:42.639Z,100317
2017-10-18T03:07:42.314Z,100319
2017-10-18T03:08:42.404Z,100309
2017-10-18T03:09:42.471Z,100311
2017-10-18T03:10:42.450Z,100311
2017-10-18T03:11:42.569Z,100315
2017-10-18T03:12:42.884Z,100314
2017-10-18T03:13:42.694Z,100314
2017-10-18T03:14:42.676Z,100312
2017-10-18T03:15:42.736Z,100306
2017-10-18T03:16:42.781Z,100308
2017-10-18T03:17:42.957Z,100303
2017-10-18T03:18:43.277Z,100305
2017-10-18T03:19:43.105Z,100308
2017-10-18T03:20:43.132Z,100307
2017-10-18T03:21:43.091Z,100309
2017-10-18T03:22:43.092Z,100305
2017-10-18T03:23:43.256Z,100304
2017-10-18T03:24:43.542Z,100299
2017-10-18T03:25:43.293Z,100300
2017-10-18T03:26:43.358Z,100300
2017-10-18T03:27:43.355Z,100297
2017-10-18T03:28:43.406Z,100297
2017-10-18T03:29:43.501Z,100292
2017-10-18T03:30:43.883Z,100298
2017-10-18T03:31:43.584Z,100299
2017-10-18T03:32:43.709Z,100299
2017-10-18T03:33:43.784Z,100300
2017-10-18T03:34:43.876Z,100292
2017-10-18T03:35:43.837Z,100300
2017-10-18T03:36:44.139Z,100298
2017-10-18T03:37:43.924Z,100299
2017-10-18T03:38:44.081Z,100299
2017-10-18T03:39:44.138Z,100301
2017-10-18T03:40:44.194Z,100302
2017-10-18T03:41:44.127Z,100298
2017-10-18T03:42:44.391Z,100294
2017-10-18T03:43:44.206Z,100298
2017-10-18T03:44:44.171Z,100299
2017-10-18T03:45:44.184Z,100295
2017-10-18T03:46:44.316Z,100295
2017-10-18T03:47:44.294Z,100301
2017-10-18T03:48:44.612Z,100294
2017-10-18T03:49:44.449Z,100294
2017-10-18T03:50:44.381Z,100291
2017-10-18T03:51:44.515Z,100292
2017-10-18T03:52:44.545Z,100292
2017-10-18T03:53:44.638Z,100283
2017-10-18T03:54:44.938Z,100288
2017-10-18T03:55:44.661Z,100288
2017-10-18T03:56:44.806Z,100286
2017-10-18T03:57:44.817Z,100289
2017-10-18T03:58:44.965Z,100287
2017-10-18T03:59:45.033Z,100280
2017-10-18T04:00:45.363Z,100284
2017-10-18T04:01:45.106Z,100281
2017-10-18T04:02:45.150Z,100281
2017-10-18T04:03:45.246Z,100279
2017-10-18T04:04:45.303Z,100273
2017-10-18T04:05:45.315Z,100278
2017-10-18T04:06:45.665Z,100279
2017-10-18T04:07:45.465Z,100276
2017-10-18T04:08:45.596Z,100272
2017-10-18T04:09:45.647Z,100271
2017-10-18T04:10:45.679Z,100270
2017-10-18T04:11:45.791Z,100271
2017-10-18T04:12:46.058Z,100266
2017-10-18T04:13:45.790Z,100267
2017-10-18T04:14:45.930Z,100260
2017-10-18T04:15:45.955Z,100258
2017-10-18T04:16:45.911Z,100262
2017-10-18T04:17:45.920Z,100263
2017-10-18T04:18:46.216Z,100262
2017-10-18T04:19:45.992Z,100257
2017-10-18T04:20:46.057Z,100259
2017-10-18T04:21:46.091Z,100261
2017-10-18T04:22:46.075Z,100260
2017-10-18T04:23:46.201Z,100260
2017-10-18T04:24:46.426Z,100259
2017-10-18T04:25:46.239Z,100261
2017-10-18T04:26:46.229Z,100263
2017-10-18T04:27:46.329Z,100261
2017-10-18T04:28:46.338Z,100260
2017-10-18T04:29:46.469Z,100257
2017-10-18T04:30:46.811Z,100256
2017-10-18T04:31:46.586Z,100256
2017-10-18T04:32:46.670Z,100251
2017-10-18T04:33:46.737Z,100255
2017-10-18T04:34:46.767Z,100255
2017-10-18T04:35:46.757Z,100254
2017-10-18T04:36:47.022Z,100253
2017-10-18T04:37:46.785Z,100249
2017-10-18T04:38:46.851Z,100242
2017-10-18T04:39:46.801Z,100239
2017-10-18T04:40:46.928Z,100238
2017-10-18T04:41:47.094Z,100238
2017-10-18T04:42:47.329Z,100236
2017-10-18T04:43:47.125Z,100235
2017-10-18T04:44:47.539Z,100234
2017-10-18T04:45:47.253Z,100237
2017-10-18T04:46:47.358Z,100239
2017-10-18T04:47:47.351Z,100241
2017-10-18T04:48:47.615Z,100241
2017-10-18T04:49:47.487Z,100238
2017-10-18T04:50:47.503Z,100236
2017-10-18T04:51:47.462Z,100231
2017-10-18T04:52:47.456Z,100235
2017-10-18T04:53:47.511Z,100229
2017-10-18T04:54:47.916Z,100230
2017-10-18T04:55:47.678Z,100228
2017-10-18T04:56:47.789Z,100228
2017-10-18T04:57:47.833Z,100227
2017-10-18T04:58:47.843Z,100229
2017-10-18T04:59:47.940Z,100225
2017-10-18T05:00:48.271Z,100227
2017-10-18T05:01:48.053Z,100223
2017-10-18T05:02:47.990Z,100222
2017-10-18T05:03:48.689Z,100225
2017-10-18T05:04:48.273Z,100225
2017-10-18T05:05:48.249Z,100225
2017-10-18T05:06:48.642Z,100224
2017-10-18T05:07:48.399Z,100224
2017-10-18T05:08:48.418Z,100220
2017-10-18T05:09:48.364Z,100221
2017-10-18T05:10:48.524Z,100219
2017-10-18T05:11:48.477Z,100213
2017-10-18T05:12:48.831Z,100217
2017-10-18T05:13:48.637Z,100213
2017-10-18T05:14:48.653Z,100212
2017-10-18T05:15:48.691Z,100210
2017-10-18T05:16:48.678Z,100213
2017-10-18T05:17:48.723Z,100209
2017-10-18T05:18:49.143Z,100210
2017-10-18T05:19:48.912Z,100206
2017-10-18T05:20:49.100Z,100210
2017-10-18T05:21:49.093Z,100211
2017-10-18T05:22:49.046Z,100210
2017-10-18T05:23:49.098Z,100211
2017-10-18T05:24:49.545Z,100211
2017-10-18T05:25:49.317Z,100210
2017-10-18T05:26:49.292Z,100210
2017-10-18T05:27:49.280Z,100208
2017-10-18T05:28:49.334Z,100213
2017-10-18T05:29:49.400Z,100211
2017-10-18T05:30:49.718Z,100210
2017-10-18T05:31:49.895Z,100208
2017-10-18T05:32:49.604Z,100208
2017-10-18T05:33:49.666Z,100210
2017-10-18T05:34:49.689Z,100206
2017-10-18T05:35:49.838Z,100209
2017-10-18T05:36:50.122Z,100201
2017-10-18T05:37:50.008Z,100202
2017-10-18T05:38:50.039Z,100199
2017-10-18T05:39:50.105Z,100194
2017-10-18T05:40:50.159Z,100200
2017-10-18T05:41:50.260Z,100192
2017-10-18T05:42:50.492Z,100196
2017-10-18T05:43:50.319Z,100195
2017-10-18T05:44:50.375Z,100196
2017-10-18T05:45:50.309Z,100197
2017-10-18T05:46:50.370Z,100194
2017-10-18T05:47:50.458Z,100187
2017-10-18T05:48:50.828Z,100193
2017-10-18T05:49:50.623Z,100196
2017-10-18T05:50:50.638Z,100195
2017-10-18T05:51:50.697Z,100191
2017-10-18T05:52:50.736Z,100196
2017-10-18T05:53:50.821Z,100191
2017-10-18T05:54:51.160Z,100195
2017-10-18T05:55:51.004Z,100190
2017-10-18T05:56:51.058Z,100193
2017-10-18T05:57:51.094Z,100196
2017-10-18T05:58:51.174Z,100197
2017-10-18T05:59:51.146Z,100193
2017-10-18T06:00:51.505Z,100192
2017-10-18T06:01:51.255Z,100196
2017-10-18T06:02:51.295Z,100200
2017-10-18T06:03:51.437Z,100205
2017-10-18T06:04:51.422Z,100203
2017-10-18T06:05:51.570Z,100197
2017-10-18T06:06:51.917Z,100203
2017-10-18T06:07:51.786Z,100202
2017-10-18T06:08:51.738Z,100209
2017-10-18T06:09:51.857Z,100207
2017-10-18T06:10:51.808Z,100213
2017-10-18T06:11:51.919Z,100214
2017-10-18T06:12:52.145Z,100209
2017-10-18T06:13:51.933Z,100207
2017-10-18T06:14:52.002Z,100211
2017-10-18T06:15:52.017Z,100208
2017-10-18T06:16:52.108Z,100208
2017-10-18T06:17:52.085Z,100208
2017-10-18T06:18:52.524Z,100204
2017-10-18T06:19:52.181Z,100202
2017-10-18T06:20:52.283Z,100198
2017-10-18T06:21:52.366Z,100200
2017-10-18T06:22:52.538Z,100203
2017-10-18T06:23:52.414Z,100196
2017-10-18T06:24:52.704Z,100203
2017-10-18T06:25:52.624Z,100204
2017-10-18T06:26:52.605Z,100206
2017-10-18T06:27:52.676Z,100207
2017-10-18T06:28:52.610Z,100205
2017-10-18T06:29:52.735Z,100203
2017-10-18T06:30:52.966Z,100201
2017-10-18T06:31:52.780Z,100202
2017-10-18T06:32:52.770Z,100201
2017-10-18T06:33:52.865Z,100208
2017-10-18T06:34:52.888Z,100205
2017-10-18T06:35:53.019Z,100208
2017-10-18T06:36:53.297Z,100209
2017-10-18T06:37:53.062Z,100207
2017-10-18T06:38:53.158Z,100204
2017-10-18T06:39:53.270Z,100199
2017-10-18T06:40:53.332Z,100200
2017-10-18T06:41:53.476Z,100198
2017-10-18T06:42:53.822Z,100194
2017-10-18T06:43:53.516Z,100194
2017-10-18T06:44:53.539Z,100191
2017-10-18T06:45:53.568Z,100192
2017-10-18T06:46:53.704Z,100196
2017-10-18T06:47:53.737Z,100198
2017-10-18T06:48:54.000Z,100196
2017-10-18T06:49:53.768Z,100197
2017-10-18T06:50:53.795Z,100200
2017-10-18T06:51:53.929Z,100198
2017-10-18T06:52:53.899Z,100202
2017-10-18T06:53:53.947Z,100198
2017-10-18T06:54:54.288Z,100200
2017-10-18T06:55:54.132Z,100197
2017-10-18T06:56:54.180Z,100198
2017-10-18T06:57:54.135Z,100201
2017-10-18T06:58:54.186Z,100200
2017-10-18T06:59:54.232Z,100203
2017-10-18T07:00:54.598Z,100201
2017-10-18T07:01:54.364Z,100202
2017-10-18T07:02:54.641Z,100195
2017-10-18T07:03:54.584Z,100203
2017-10-18T07:04:54.510Z,100204
2017-10-18T07:05:54.619Z,100205
2017-10-18T07:06:54.921Z,100205
2017-10-18T07:07:54.666Z,100205
2017-10-18T07:08:54.750Z,100203
2017-10-18T07:09:54.907Z,100203
2017-10-18T07:10:55.028Z,100199
2017-10-18T07:11:55.001Z,100200
2017-10-18T07:12:55.315Z,100198
2017-10-18T07:13:55.210Z,100196
2017-10-18T07:14:55.140Z,100209
2017-10-18T07:15:55.226Z,100203
2017-10-18T07:16:55.299Z,100201
2017-10-18T07:17:55.291Z,100207
2017-10-18T07:18:55.583Z,100203
2017-10-18T07:19:55.380Z,100206
2017-10-18T07:20:55.736Z,100206
2017-10-18T07:21:55.669Z,100209
2017-10-18T07:22:55.568Z,100202
2017-10-18T07:23:55.571Z,100201
2017-10-18T07:24:55.811Z,100200
2017-10-18T07:25:55.643Z,100204
2017-10-18T07:26:55.691Z,100209
2017-10-18T07:27:55.721Z,100202
2017-10-18T07:28:55.781Z,100205
2017-10-18T07:29:55.908Z,100205
2017-10-18T07:30:56.176Z,100203
2017-10-18T07:31:56.043Z,100209
2017-10-18T07:32:55.980Z,100205
2017-10-18T07:33:56.125Z,100212
2017-10-18T07:34:56.251Z,100210
2017-10-18T07:35:56.288Z,100207
2017-10-18T07:36:56.779Z,100207
2017-10-18T07:37:56.447Z,100208
2017-10-18T07:38:56.529Z,100206
2017-10-18T07:39:56.636Z,100208
2017-10-18T07:40:56.602Z,100203
2017-10-18T07:41:56.772Z,100198
2017-10-18T07:42:57.090Z,100205
2017-10-18T07:43:57.690Z,100207
2017-10-18T07:44:57.012Z,100205
2017-10-18T07:45:57.079Z,100201
2017-10-18T07:46:57.017Z,100205
2017-10-18T07:47:57.192Z,100206
2017-10-18T07:48:57.374Z,100205
2017-10-18T07:49:57.158Z,100207
2017-10-18T07:50:57.126Z,100204
2017-10-18T07:51:57.210Z,100199
2017-10-18T07:52:57.176Z,100206
2017-10-18T07:53:57.146Z,100204
2017-10-18T07:54:57.498Z,100204
2017-10-18T07:55:57.317Z,100202
2017-10-18T07:56:57.374Z,100206
2017-10-18T07:57:58.203Z,100207
2017-10-18T07:58:57.932Z,100201
2017-10-18T07:59:57.634Z,100205
2017-10-18T08:00:57.878Z,100202
2017-10-18T08:01:57.616Z,100207
2017-10-18T08:02:57.738Z,100206
2017-10-18T08:03:57.718Z,100205
2017-10-18T08:04:59.071Z,100204
2017-10-18T08:05:57.920Z,100202
2017-10-18T08:06:58.331Z,100200
2017-10-18T08:07:58.027Z,100202
2017-10-18T08:08:58.814Z,100198
2017-10-18T08:09:58.430Z,100198
2017-10-18T08:10:58.717Z,100196
2017-10-18T08:11:58.349Z,100186
2017-10-18T08:12:58.632Z,100192
2017-10-18T08:13:58.323Z,100186
2017-10-18T08:14:58.424Z,100189
2017-10-18T08:15:58.381Z,100182
2017-10-18T08:16:58.485Z,100187
2017-10-18T08:17:58.460Z,100184
2017-10-18T08:18:58.810Z,100191
2017-10-18T08:19:58.567Z,100185
2017-10-18T08:20:58.722Z,100187
2017-10-18T08:21:58.768Z,100189
2017-10-18T08:22:59.024Z,100189
2017-10-18T08:23:58.735Z,100187
2017-10-18T08:24:59.612Z,100187
2017-10-18T08:25:58.907Z,100187
2017-10-18T08:26:58.898Z,100178
2017-10-18T08:27:59.103Z,100184
2017-10-18T08:28:59.012Z,100184
2017-10-18T08:29:59.093Z,100177
2017-10-18T08:30:59.446Z,100181
2017-10-18T08:31:59.240Z,100184
2017-10-18T08:32:59.342Z,100175
2017-10-18T08:33:59.292Z,100174
2017-10-18T08:34:59.544Z,100172
2017-10-18T08:35:59.381Z,100177
2017-10-18T08:36:59.687Z,100148
2017-10-18T08:37:59.619Z,100165
2017-10-18T08:38:59.700Z,100168
2017-10-18T08:40:00.194Z,100173
2017-10-18T08:40:59.581Z,100171
2017-10-18T08:42:00.810Z,100170
2017-10-18T08:43:00.080Z,100167
2017-10-18T08:44:00.802Z,100177
2017-10-18T08:44:59.901Z,100179
2017-10-18T08:46:00.148Z,100175
2017-10-18T08:46:59.801Z,100177
2017-10-18T08:48:00.173Z,100175
2017-10-18T08:49:00.259Z,100179
2017-10-18T08:50:00.043Z,100179
2017-10-18T08:51:00.177Z,100178
2017-10-18T08:52:00.185Z,100174
2017-10-18T08:53:00.168Z,100179
2017-10-18T08:54:00.305Z,100180
2017-10-18T08:55:00.644Z,100184
2017-10-18T08:56:00.392Z,100177
2017-10-18T08:57:00.423Z,100175
2017-10-18T08:58:00.478Z,100190
2017-10-18T08:59:00.574Z,100192
2017-10-18T09:00:00.577Z,100191
2017-10-18T09:01:01.025Z,100192
2017-10-18T09:02:00.803Z,100192
2017-10-18T09:03:00.845Z,100191
2017-10-18T09:04:00.775Z,100186
2017-10-18T09:05:00.916Z,100183
2017-10-18T09:06:00.971Z,100183
2017-10-18T09:07:01.206Z,100186
2017-10-18T09:08:00.916Z,100186
2017-10-18T09:09:00.993Z,100193
2017-10-18T09:10:01.070Z,100182
2017-10-18T09:11:01.104Z,100177
2017-10-18T09:12:01.242Z,100176
2017-10-18T09:13:01.434Z,100175
2017-10-18T09:14:01.254Z,100176
2017-10-18T09:15:01.308Z,100175
2017-10-18T09:16:01.347Z,100168
2017-10-18T09:17:01.359Z,100176
2017-10-18T09:18:01.438Z,100175
2017-10-18T09:19:01.796Z,100174
2017-10-18T09:20:01.615Z,100170
2017-10-18T09:21:01.480Z,100166
2017-10-18T09:22:01.532Z,100165
2017-10-18T09:23:01.552Z,100163
2017-10-18T09:24:01.776Z,100163
2017-10-18T09:25:02.095Z,100162
2017-10-18T09:26:01.883Z,100160
2017-10-18T09:27:03.264Z,100162
2017-10-18T09:28:04.411Z,100164
2017-10-18T09:29:02.096Z,100163
2017-10-18T09:30:02.129Z,100157
2017-10-18T09:31:02.484Z,100157
2017-10-18T09:32:02.211Z,100154
2017-10-18T09:33:02.222Z,100151
2017-10-18T09:34:02.267Z,100152
2017-10-18T09:35:02.449Z,100152
2017-10-18T09:36:02.428Z,100154
2017-10-18T09:37:02.696Z,100137
2017-10-18T09:38:05.449Z,100154
2017-10-18T09:39:02.533Z,100149
2017-10-18T09:40:02.567Z,100152
2017-10-18T09:41:02.575Z,100148
2017-10-18T09:42:02.670Z,100153
2017-10-18T09:43:03.014Z,100152
2017-10-18T09:44:02.860Z,100155
2017-10-18T09:45:02.981Z,100153
2017-10-18T09:46:02.947Z,100152
2017-10-18T09:47:02.928Z,100158
2017-10-18T09:48:04.195Z,100149
2017-10-18T09:49:03.412Z,100149
2017-10-18T09:50:03.059Z,100150
2017-10-18T09:51:03.054Z,100149
2017-10-18T09:52:03.103Z,100148
2017-10-18T09:53:03.310Z,100146
2017-10-18T09:54:03.364Z,100145
2017-10-18T09:55:03.580Z,100147
2017-10-18T09:56:03.379Z,100143
2017-10-18T09:57:03.424Z,100140
2017-10-18T09:58:03.418Z,100140
2017-10-18T09:59:03.474Z,100148
2017-10-18T10:00:03.441Z,100141
2017-10-18T10:01:03.768Z,100139
2017-10-18T10:02:03.603Z,100141
2017-10-18T10:03:03.630Z,100138
2017-10-18T10:04:03.839Z,100142
2017-10-18T10:05:03.845Z,100146
2017-10-18T10:06:03.875Z,100141
2017-10-18T10:07:04.261Z,100147
2017-10-18T10:08:03.996Z,100142
2017-10-18T10:09:03.976Z,100140
2017-10-18T10:10:04.043Z,100140
2017-10-18T10:11:04.049Z,100140
2017-10-18T10:12:04.119Z,100138
2017-10-18T10:13:04.407Z,100138
2017-10-18T10:14:04.243Z,100140
2017-10-18T10:16:05.068Z,100135
2017-10-18T10:17:04.616Z,100134
2017-10-18T10:18:04.618Z,100138
2017-10-18T10:19:04.678Z,100135
2017-10-18T10:20:04.476Z,100137
2017-10-18T10:21:04.612Z,100131
2017-10-18T10:22:04.605Z,100134
2017-10-18T10:23:04.771Z,100138
2017-10-18T10:24:04.740Z,100138
2017-10-18T10:25:05.009Z,100138
2017-10-18T10:26:04.786Z,100143
2017-10-18T10:27:04.832Z,100147
2017-10-18T10:28:04.952Z,100134
2017-10-18T10:29:04.961Z,100137
2017-10-18T10:30:05.466Z,100134
2017-10-18T10:31:05.379Z,100136
2017-10-18T10:32:05.185Z,100136
2017-10-18T10:33:05.856Z,100135
2017-10-18T10:34:05.343Z,100139
2017-10-18T10:35:05.407Z,100139
2017-10-18T10:36:05.393Z,100138
2017-10-18T10:37:05.604Z,100134
2017-10-18T10:38:05.426Z,100134
2017-10-18T10:39:05.403Z,100136
2017-10-18T10:40:05.559Z,100132
2017-10-18T10:41:05.667Z,100133
2017-10-18T10:42:05.686Z,100134
2017-10-18T10:43:06.028Z,100127
2017-10-18T10:44:05.821Z,100129
2017-10-18T10:45:05.826Z,100134
2017-10-18T10:46:05.906Z,100126
2017-10-18T10:47:06.007Z,100130
2017-10-18T10:48:05.965Z,100133
2017-10-18T10:49:06.258Z,100128
2017-10-18T10:50:06.684Z,100133
2017-10-18T10:51:06.039Z,100122
2017-10-18T10:52:06.157Z,100123
2017-10-18T10:53:06.238Z,100118
2017-10-18T10:54:06.287Z,100121
2017-10-18T10:55:06.567Z,100126
2017-10-18T10:56:06.330Z,100125
2017-10-18T10:57:06.431Z,100126
2017-10-18T10:58:06.394Z,100127
2017-10-18T10:59:06.453Z,100126
2017-10-18T11:00:06.519Z,100119
2017-10-18T11:01:06.700Z,100123
2017-10-18T11:02:06.605Z,100124
2017-10-18T11:03:06.489Z,100123
2017-10-18T11:04:06.465Z,100122
2017-10-18T11:05:06.667Z,100122
2017-10-18T11:06:06.546Z,100117
2017-10-18T11:07:06.966Z,100119
2017-10-18T11:08:06.753Z,100120
2017-10-18T11:09:06.876Z,100118
2017-10-18T11:10:06.897Z,100116
2017-10-18T11:11:06.915Z,100113
2017-10-18T11:12:06.945Z,100120
2017-10-18T11:13:07.313Z,100118
2017-10-18T11:14:07.171Z,100116
2017-10-18T11:15:07.169Z,100116
2017-10-18T11:16:07.112Z,100116
2017-10-18T11:17:07.109Z,100117
2017-10-18T11:18:07.337Z,100114
2017-10-18T11:19:07.540Z,100116
2017-10-18T11:20:07.326Z,100109
2017-10-18T11:21:07.467Z,100109
2017-10-18T11:22:07.590Z,100106
2017-10-18T11:23:07.567Z,100110
2017-10-18T11:24:07.671Z,100103
2017-10-18T11:25:07.996Z,100105
2017-10-18T11:26:07.790Z,100097
2017-10-18T11:27:07.852Z,100096
2017-10-18T11:28:08.231Z,100094
2017-10-18T11:29:08.001Z,100095
2017-10-18T11:30:07.979Z,100091
2017-10-18T11:31:08.278Z,100066
2017-10-18T11:32:08.133Z,100095
2017-10-18T11:33:08.105Z,100097
2017-10-18T11:34:08.140Z,100097
2017-10-18T11:35:08.182Z,100096
2017-10-18T11:36:08.263Z,100099
2017-10-18T11:37:09.321Z,100097
2017-10-18T11:38:09.740Z,100095
2017-10-18T11:39:09.086Z,100097
2017-10-18T11:40:08.458Z,100094
2017-10-18T11:41:09.720Z,100092
2017-10-18T11:42:08.635Z,100093
2017-10-18T11:43:08.994Z,100090
2017-10-18T11:44:08.693Z,100090
2017-10-18T11:45:08.752Z,100095
2017-10-18T11:46:08.765Z,100094
2017-10-18T11:47:08.909Z,100085
2017-10-18T11:48:08.942Z,100092
2017-10-18T11:49:09.954Z,100085
2017-10-18T11:50:09.082Z,100084
2017-10-18T11:51:09.087Z,100081
2017-10-18T11:52:09.174Z,100086
2017-10-18T11:53:09.190Z,100082
2017-10-18T11:54:09.231Z,100079
2017-10-18T11:55:09.594Z,100076
2017-10-18T11:56:09.269Z,100080
2017-10-18T11:57:09.480Z,100079
2017-10-18T11:58:09.410Z,100077
2017-10-18T11:59:09.348Z,100075
2017-10-18T12:00:09.438Z,100070
2017-10-18T12:01:09.916Z,100074
2017-10-18T12:02:09.705Z,100081
2017-10-18T12:03:09.696Z,100077
2017-10-18T12:04:09.789Z,100079
2017-10-18T12:05:09.882Z,100077
2017-10-18T12:06:09.959Z,100074
2017-10-18T12:07:10.205Z,100076
2017-10-18T12:08:09.890Z,100077
2017-10-18T12:09:10.027Z,100080
2017-10-18T12:10:10.017Z,100074
2017-10-18T12:11:10.028Z,100077
2017-10-18T12:12:10.232Z,100085
2017-10-18T12:13:10.513Z,100084
2017-10-18T12:14:10.874Z,100081
2017-10-18T12:15:11.030Z,100080
2017-10-18T12:16:10.376Z,100081
2017-10-18T12:17:10.469Z,100071
2017-10-18T12:18:10.598Z,100067
2017-10-18T12:19:10.727Z,100067
2017-10-18T12:20:10.660Z,100062
2017-10-18T12:21:10.835Z,100062
2017-10-18T12:22:10.710Z,100067
2017-10-18T12:23:10.853Z,100067
2017-10-18T12:24:10.899Z,100026
2017-10-18T12:25:11.219Z,100069
2017-10-18T12:26:11.045Z,100071
2017-10-18T12:27:11.794Z,100071
2017-10-18T12:28:11.079Z,100070
2017-10-18T12:29:11.163Z,100058
2017-10-18T12:30:11.247Z,100067